createdAt,value
2024-02-13T00:00:15.752Z,1.92
2024-02-13T00:10:19.837Z,3.40
2024-02-13T00:20:23.258Z,2.08
2024-02-13T00:30:25.196Z,2.70
2024-02-13T00:40:28.559Z,2.40
2024-02-13T00:50:30.566Z,2.53
2024-02-13T01:00:33.929Z,2.35
2024-02-13T01:10:36.008Z,1.48
2024-02-13T01:20:39.503Z,1.95
2024-02-13T01:30:41.485Z,1.60
2024-02-13T01:40:44.913Z,1.48
2024-02-13T01:50:47.053Z,1.90
2024-02-13T02:00:51.400Z,2.00
2024-02-13T02:10:53.879Z,4.15
2024-02-13T02:20:57.257Z,1.77
2024-02-13T02:31:00.584Z,2.15
2024-02-13T02:41:02.565Z,1.52
2024-02-13T02:51:06.135Z,2.53
2024-02-13T03:01:08.288Z,1.30
2024-02-13T03:11:11.687Z,1.23
2024-02-13T03:21:13.774Z,1.85
2024-02-13T03:31:17.196Z,2.30
2024-02-13T03:41:19.209Z,1.30
2024-02-13T03:51:22.598Z,1.17
2024-02-13T04:01:24.566Z,1.10
2024-02-13T04:11:28.050Z,1.33
2024-02-13T04:21:30.003Z,3.03
2024-02-13T04:31:33.352Z,2.53
2024-02-13T04:41:35.397Z,1.02
2024-02-13T04:51:38.698Z,1.85
2024-02-13T05:01:40.830Z,0.80
2024-02-13T05:11:44.397Z,1.08
2024-02-13T05:21:46.409Z,1.08
2024-02-13T05:31:49.780Z,1.48
2024-02-13T05:41:51.869Z,1.08
2024-02-13T05:51:55.260Z,1.58
2024-02-13T06:01:57.302Z,0.93
2024-02-13T06:12:00.820Z,1.20
2024-02-13T06:22:02.976Z,1.10
2024-02-13T06:32:07.217Z,1.38
2024-02-13T06:42:09.241Z,1.10
2024-02-13T06:52:12.581Z,0.88
2024-02-13T07:02:14.639Z,1.00
2024-02-13T07:12:18.015Z,1.35
2024-02-13T07:22:20.165Z,0.80
2024-02-13T07:32:23.587Z,1.10
2024-02-13T07:42:25.620Z,1.10
2024-02-13T07:52:29.049Z,1.10
2024-02-13T08:02:31.166Z,0.95
2024-02-13T08:12:34.554Z,1.40
2024-02-13T08:22:36.574Z,1.90
2024-02-13T08:32:40.952Z,1.48
2024-02-13T08:42:44.168Z,2.33
2024-02-13T08:52:47.481Z,2.25
2024-02-13T09:02:49.917Z,2.72
2024-02-13T09:12:53.334Z,2.22
2024-02-13T09:22:55.426Z,1.73
2024-02-13T09:32:58.824Z,1.83
2024-02-13T09:43:00.945Z,1.73
2024-02-13T09:53:09.192Z,1.98
2024-02-13T10:03:11.368Z,2.03
2024-02-13T10:13:14.767Z,2.63
2024-02-13T10:23:17.085Z,1.88
2024-02-13T10:33:20.688Z,2.00
2024-02-13T10:43:24.039Z,2.67
2024-02-13T10:53:28.364Z,2.00
2024-02-13T11:03:30.666Z,1.90
2024-02-13T11:13:34.069Z,2.42
2024-02-13T11:23:36.076Z,2.08
2024-02-13T11:33:59.639Z,1.75
2024-02-13T11:44:06.251Z,2.83
2024-02-13T11:54:10.303Z,1.30
2024-02-13T12:04:12.725Z,1.50
2024-02-13T12:14:16.436Z,1.55
2024-02-13T12:24:18.715Z,1.52
2024-02-13T12:34:24.354Z,1.65
2024-02-13T12:44:27.743Z,2.28
2024-02-13T12:54:33.458Z,2.42
2024-02-13T13:04:36.165Z,2.60
2024-02-13T13:14:39.605Z,1.83
2024-02-13T13:24:41.568Z,2.08
2024-02-13T13:34:45.503Z,1.70
2024-02-13T13:44:47.530Z,2.15
2024-02-13T13:54:50.935Z,4.22
2024-02-13T14:04:53.106Z,1.50
2024-02-13T14:14:56.522Z,1.33
2024-02-13T14:24:58.575Z,1.45
2024-02-13T14:35:05.169Z,1.98
2024-02-13T14:45:08.216Z,1.33
2024-02-13T14:55:12.237Z,1.25
2024-02-13T15:05:15.793Z,1.48
2024-02-13T15:15:19.235Z,0.80
2024-02-13T15:25:21.257Z,0.68
2024-02-13T15:35:27.509Z,0.98
2024-02-13T15:45:29.508Z,0.90
2024-02-13T15:55:32.911Z,0.90
2024-02-13T16:05:35.694Z,0.73
2024-02-13T16:15:39.166Z,0.65
2024-02-13T16:25:41.187Z,1.00
2024-02-13T16:35:44.648Z,0.80
2024-02-13T16:45:46.979Z,0.90
2024-02-13T16:55:50.419Z,0.80
2024-02-13T17:05:52.820Z,0.75
2024-02-13T17:15:56.282Z,0.77
2024-02-13T17:25:58.503Z,0.93
2024-02-13T17:36:02.012Z,0.80
2024-02-13T17:46:04.373Z,0.85
2024-02-13T17:56:08.577Z,1.00
2024-02-13T18:06:10.704Z,1.15
2024-02-13T18:16:14.142Z,1.35
2024-02-13T18:26:22.007Z,1.75
2024-02-13T18:36:25.922Z,2.45
2024-02-13T18:46:28.243Z,1.52
2024-02-13T18:56:34.982Z,1.88
2024-02-13T19:06:49.721Z,1.60
2024-02-13T19:17:09.427Z,1.80
2024-02-13T19:27:11.549Z,1.70
2024-02-13T19:37:15.056Z,1.85
2024-02-13T19:47:17.658Z,2.17
2024-02-13T19:57:21.348Z,2.85
2024-02-13T20:07:24.440Z,3.05
2024-02-13T20:17:28.889Z,4.30
2024-02-13T20:27:37.533Z,6.55
2024-02-13T20:38:20.911Z,6.43
2024-02-13T21:08:57.311Z,3.05
2024-02-13T21:29:28.567Z,6.43
2024-02-13T21:39:32.275Z,3.83
2024-02-13T21:49:34.422Z,4.57
2024-02-13T21:59:37.834Z,4.70
2024-02-13T22:09:40.043Z,3.97
2024-02-13T22:19:43.488Z,7.38
